»·PEaware :: SWA1649 KSAN-KTUS

SWA1649 :: KSAN-KTUS

FLIGHT INFORMATION

Flight Status: Arrived
Operator:
Southwest Airlines
More flights by this operator :: More flights under this callsign
Pilot: Walter P. (10403)
Aircraft: BOEING 737-300
(B733)
More flights by this aircraft type
Origin: KSAN San Diego Intl-Lindbergh
United States
Destination: KTUS Tucson Intl
United States
More flights between these airports :: More routes between these airports
Route: ZZOOO2 IPL J2 GBN DINGO5
File this flight plan on PilotEdge
Remarks:
Altitude:
(Current/Filed)
33,000ft
Speed:
(Current/Filed)
400kts
Departed: 07-Apr-18 08:35 AM
Arrived: 07-Apr-18 09:35 AM
Distance/Time
Traveled:
319nm/1:00
Distance/Time
To Go:
Arrived

Flight Plot

Page will automatically refresh every two minutes.

Flight plan parsing failed; only flown route is shown


Map Options




Map Legend


Flown Route
Filed Route
Departure Airport
Arrival Airport
Navaid (VOR, NDB)
Fix

Horizontal Profiles

Position Reports

Time Latitude Longitude Heading Altitude Ground
Speed
07-Apr-18 07:53 32.732753 -117.197003 132 23ft 0kts
07-Apr-18 07:54 32.732753 -117.197003 132 23ft 0kts
07-Apr-18 07:55 32.732753 -117.197003 132 23ft 0kts
07-Apr-18 07:56 32.732753 -117.197003 132 23ft 0kts
07-Apr-18 07:57 32.732753 -117.197003 132 23ft 0kts
07-Apr-18 07:58 32.732753 -117.197003 132 23ft 0kts
07-Apr-18 07:59 32.732753 -117.197003 132 23ft 0kts
07-Apr-18 08:00 32.732753 -117.197003 132 23ft 0kts
07-Apr-18 08:01 32.732753 -117.197003 132 23ft 0kts
07-Apr-18 08:02 32.732753 -117.197003 132 23ft 0kts
07-Apr-18 08:03 32.732753 -117.197003 132 23ft 0kts
07-Apr-18 08:04 32.732753 -117.197003 132 23ft 0kts
07-Apr-18 08:05 32.732753 -117.197003 132 23ft 0kts
07-Apr-18 08:06 32.732753 -117.197003 132 23ft 0kts
07-Apr-18 08:07 32.732753 -117.197003 132 23ft 0kts
07-Apr-18 08:08 32.732753 -117.197003 132 23ft 0kts
07-Apr-18 08:09 32.732753 -117.197003 132 23ft 0kts
07-Apr-18 08:10 32.732753 -117.197003 132 23ft 0kts
07-Apr-18 08:11 32.732753 -117.197003 132 23ft 0kts
07-Apr-18 08:12 32.732753 -117.197003 132 23ft 0kts
07-Apr-18 08:13 32.732753 -117.197003 132 23ft 0kts
07-Apr-18 08:14 32.732753 -117.197003 132 23ft 0kts
07-Apr-18 08:15 32.732753 -117.197003 132 23ft 0kts
07-Apr-18 08:16 32.732753 -117.197003 132 23ft 0kts
07-Apr-18 08:17 32.732753 -117.197003 132 23ft 0kts
07-Apr-18 08:18 32.732753 -117.197003 132 23ft 0kts
07-Apr-18 08:19 32.732753 -117.197003 132 23ft 0kts
07-Apr-18 08:20 32.732753 -117.197003 132 23ft 0kts
07-Apr-18 08:21 32.732753 -117.197003 132 23ft 0kts
07-Apr-18 08:22 32.732753 -117.197003 132 23ft 0kts
07-Apr-18 08:23 32.732928 -117.197249 95 23ft 2kts
07-Apr-18 08:24 32.732806 -117.197459 31 23ft 0kts
07-Apr-18 08:25 32.732806 -117.197458 31 23ft 0kts
07-Apr-18 08:26 32.732806 -117.197458 31 23ft 0kts
07-Apr-18 08:27 32.732806 -117.197458 31 23ft 0kts
07-Apr-18 08:28 32.733579 -117.197094 15 23ft 8kts
07-Apr-18 08:29 32.733466 -117.193449 106 23ft 16kts
07-Apr-18 08:30 32.731903 -117.187107 106 21ft 24kts
07-Apr-18 08:31 32.729900 -117.178710 108 21ft 27kts
07-Apr-18 08:32 32.729546 -117.176643 75 21ft 0kts
07-Apr-18 08:33 32.729855 -117.175824 33 22ft 9kts
07-Apr-18 08:34 32.734982 -117.195954 283 36ft 163kts
07-Apr-18 08:35 32.748709 -117.252138 286 2070ft 199kts
07-Apr-18 08:36 32.739962 -117.314046 207 4129ft 230kts
07-Apr-18 08:37 32.679320 -117.285104 147 6271ft 258kts
07-Apr-18 08:38 32.629679 -117.225679 96 8534ft 269kts
07-Apr-18 08:39 32.621614 -117.135899 95 10719ft 280kts
07-Apr-18 08:40 32.613514 -117.044684 95 12742ft 292kts
07-Apr-18 08:41 32.604523 -116.945684 96 13991ft 305kts
07-Apr-18 08:42 32.617666 -116.837752 75 14579ft 366kts
07-Apr-18 08:43 32.635878 -116.717340 82 16579ft 380kts
07-Apr-18 08:44 32.648056 -116.591746 82 18366ft 391kts
07-Apr-18 08:45 32.660642 -116.462394 82 20005ft 402kts
07-Apr-18 08:46 32.673394 -116.329925 82 21490ft 413kts
07-Apr-18 08:47 32.686301 -116.194107 82 22989ft 419kts
07-Apr-18 08:48 32.699388 -116.055020 82 24379ft 429kts
07-Apr-18 08:49 32.712234 -115.912757 82 25681ft 439kts
07-Apr-18 08:50 32.725581 -115.767955 82 26922ft 447kts
07-Apr-18 08:51 32.739062 -115.620001 82 28007ft 455kts
07-Apr-18 08:52 32.750308 -115.469971 87 28929ft 463kts
07-Apr-18 08:53 32.753482 -115.317590 88 29680ft 474kts
07-Apr-18 08:54 32.757105 -115.162275 87 30774ft 472kts
07-Apr-18 08:55 32.760517 -115.007497 87 31788ft 470kts
07-Apr-18 08:56 32.763446 -114.852746 87 32745ft 469kts
07-Apr-18 08:57 32.766478 -114.698737 87 32925ft 465kts
07-Apr-18 08:58 32.768956 -114.546204 87 32918ft 464kts
07-Apr-18 08:59 32.771055 -114.393155 87 32852ft 464kts
07-Apr-18 09:00 32.773061 -114.241012 88 32857ft 465kts
07-Apr-18 09:01 32.774870 -114.090145 87 32856ft 465kts
07-Apr-18 09:02 32.779829 -113.937193 78 32859ft 462kts
07-Apr-18 09:03 32.802493 -113.786698 78 32856ft 463kts
07-Apr-18 09:04 32.823871 -113.636325 78 32853ft 462kts
07-Apr-18 09:05 32.845087 -113.486115 77 32904ft 462kts
07-Apr-18 09:06 32.866191 -113.335842 78 32908ft 463kts
07-Apr-18 09:07 32.886615 -113.188829 78 31707ft 466kts
07-Apr-18 09:08 32.907083 -113.040427 77 29273ft 453kts
07-Apr-18 09:09 32.927467 -112.891431 77 25978ft 459kts
07-Apr-18 09:10 32.947256 -112.745171 77 24013ft 433kts
07-Apr-18 09:11 32.932588 -112.604828 117 23927ft 454kts
07-Apr-18 09:12 32.877735 -112.469977 113 23927ft 452kts
07-Apr-18 09:13 32.826103 -112.336388 113 22591ft 433kts
07-Apr-18 09:14 32.777805 -112.211298 113 20556ft 414kts
07-Apr-18 09:15 32.730720 -112.090005 113 18570ft 396kts
07-Apr-18 09:16 32.685402 -111.973649 113 16518ft 383kts
07-Apr-18 09:17 32.641625 -111.861632 114 14542ft 368kts
07-Apr-18 09:18 32.599282 -111.753631 114 12571ft 356kts
07-Apr-18 09:19 32.557797 -111.648245 114 11929ft 354kts
07-Apr-18 09:20 32.516415 -111.545278 114 11976ft 343kts
07-Apr-18 09:21 32.481588 -111.441353 111 11978ft 337kts
07-Apr-18 09:22 32.446427 -111.341574 112 11109ft 316kts
07-Apr-18 09:23 32.413394 -111.248383 113 9471ft 307kts
07-Apr-18 09:24 32.343287 -111.214179 189 7779ft 289kts
07-Apr-18 09:25 32.265839 -111.226559 208 6297ft 272kts
07-Apr-18 09:26 32.258067 -111.297538 320 5986ft 266kts
07-Apr-18 09:27 32.327266 -111.294372 31 5962ft 259kts
07-Apr-18 09:28 32.331005 -111.220109 117 6005ft 248kts
07-Apr-18 09:29 32.298215 -111.150397 136 5993ft 242kts
07-Apr-18 09:30 32.249492 -111.095939 138 5659ft 239kts
07-Apr-18 09:31 32.204457 -111.043204 137 4917ft 230kts
07-Apr-18 09:32 32.161090 -110.992727 132 3668ft 199kts
07-Apr-18 09:33 32.128735 -110.954140 134 2792ft 146kts
07-Apr-18 09:34 32.107619 -110.929397 133 2600ft 34kts
07-Apr-18 09:35 32.107457 -110.927183 39 2600ft 1kts
07-Apr-18 09:36 32.109410 -110.929102 310 2600ft 29kts
07-Apr-18 09:37 32.116112 -110.936877 315 2600ft 31kts
07-Apr-18 09:38 32.119730 -110.939591 309 2600ft 10kts
07-Apr-18 09:39 32.121500 -110.940158 127 2600ft 1kts
07-Apr-18 09:40 32.121480 -110.940127 127 2600ft 0kts
07-Apr-18 09:41 32.121480 -110.940127 127 2600ft 0kts

Navigation Log

Ident Type
Flight plan parsing failed, navigation log unavailable